createdAt,value
2022-08-26T00:00:20.372Z,5.13
2022-08-26T00:02:48.614Z,4.33
2022-08-26T00:05:17.045Z,4.13
2022-08-26T00:07:46.558Z,2.63
2022-08-26T00:10:16.205Z,3.47
2022-08-26T00:12:45.661Z,5.90
2022-08-26T00:15:19.201Z,5.80
2022-08-26T00:17:49.095Z,4.13
2022-08-26T00:20:20.705Z,3.50
2022-08-26T00:22:48.933Z,7.90
2022-08-26T00:25:19.301Z,2.57
2022-08-26T00:27:48.242Z,4.40
2022-08-26T00:30:22.702Z,3.10
2022-08-26T00:32:53.370Z,2.70
2022-08-26T00:35:22.207Z,6.27
2022-08-26T00:37:51.614Z,4.13
2022-08-26T00:40:25.099Z,2.97
2022-08-26T00:42:53.982Z,3.23
2022-08-26T00:45:22.778Z,5.00
2022-08-26T00:47:54.374Z,5.13
2022-08-26T00:50:26.712Z,4.60
2022-08-26T00:52:57.637Z,6.67
2022-08-26T00:55:37.793Z,5.93
2022-08-26T00:58:08.489Z,6.10
2022-08-26T01:00:36.869Z,5.57
2022-08-26T01:03:05.576Z,3.50
2022-08-26T01:05:40.837Z,3.87
2022-08-26T01:08:09.027Z,7.27
2022-08-26T01:10:38.589Z,9.03
2022-08-26T01:13:11.263Z,6.70
2022-08-26T01:15:44.759Z,4.07
2022-08-26T01:18:15.027Z,8.30
2022-08-26T01:20:51.897Z,4.07
2022-08-26T01:23:31.481Z,7.77
2022-08-26T01:26:04.219Z,6.70
2022-08-26T01:28:35.925Z,4.50
2022-08-26T01:31:06.761Z,5.37
2022-08-26T01:33:42.532Z,4.40
2022-08-26T01:36:12.115Z,9.03
2022-08-26T01:38:44.224Z,3.53
2022-08-26T01:41:16.389Z,5.90
2022-08-26T01:43:52.038Z,5.03
2022-08-26T01:46:21.198Z,5.27
2022-08-26T01:48:54.438Z,4.27
2022-08-26T01:51:24.473Z,3.50
2022-08-26T01:53:54.572Z,8.43
2022-08-26T01:56:24.258Z,5.67
2022-08-26T01:58:57.054Z,7.50
2022-08-26T02:01:28.938Z,7.13
2022-08-26T02:04:04.561Z,5.30
2022-08-26T02:06:33.590Z,6.90
2022-08-26T02:09:05.525Z,3.80
2022-08-26T02:11:34.634Z,5.53
2022-08-26T02:14:10.242Z,4.07
2022-08-26T02:16:42.932Z,7.10
2022-08-26T02:19:17.284Z,5.23
2022-08-26T02:21:51.345Z,4.17
2022-08-26T02:24:27.316Z,5.57
2022-08-26T02:26:57.421Z,4.50
2022-08-26T02:29:31.987Z,6.00
2022-08-26T02:32:00.549Z,9.50
2022-08-26T02:34:33.237Z,6.47
2022-08-26T02:37:03.566Z,8.63
2022-08-26T02:39:35.017Z,10.27
2022-08-26T02:42:03.228Z,9.23
2022-08-26T02:44:31.369Z,9.30
2022-08-26T02:47:02.642Z,10.63
2022-08-26T02:49:31.365Z,4.90
2022-08-26T02:52:01.848Z,9.47
2022-08-26T02:54:30.476Z,7.43
2022-08-26T02:57:00.308Z,13.27
2022-08-26T02:59:29.267Z,8.67
2022-08-26T03:01:58.342Z,6.73
2022-08-26T03:04:26.680Z,6.17
2022-08-26T03:06:55.579Z,5.80
2022-08-26T03:09:24.221Z,9.33
2022-08-26T03:11:52.635Z,5.17
2022-08-26T03:14:23.844Z,16.27
2022-08-26T03:16:54.522Z,6.83
2022-08-26T03:19:24.581Z,8.50
2022-08-26T03:21:57.916Z,5.97
2022-08-26T03:24:26.680Z,7.97
2022-08-26T03:26:54.988Z,8.23
2022-08-26T03:29:42.879Z,4.97
2022-08-26T03:32:12.019Z,7.87
2022-08-26T03:34:40.246Z,6.70
2022-08-26T03:37:08.810Z,9.73
2022-08-26T03:39:38.348Z,7.43
2022-08-26T03:42:07.058Z,9.20
2022-08-26T03:44:42.034Z,13.13
2022-08-26T03:47:10.971Z,13.20
2022-08-26T03:49:39.636Z,8.27
2022-08-26T03:52:07.998Z,7.80
2022-08-26T03:54:36.502Z,9.63
2022-08-26T03:57:05.190Z,5.83
2022-08-26T03:59:34.133Z,8.40
2022-08-26T04:02:03.846Z,8.93
2022-08-26T04:04:40.609Z,15.27
2022-08-26T04:07:08.994Z,9.00
2022-08-26T04:09:37.304Z,10.93
2022-08-26T04:12:06.242Z,8.07
2022-08-26T04:14:35.685Z,11.83
2022-08-26T04:17:07.710Z,15.30
2022-08-26T04:19:36.462Z,10.30
2022-08-26T04:22:04.689Z,12.50
2022-08-26T04:24:33.425Z,7.53
2022-08-26T04:27:03.459Z,11.20
2022-08-26T04:29:31.730Z,10.00
2022-08-26T04:32:02.182Z,11.40
2022-08-26T04:34:32.842Z,12.33
2022-08-26T04:37:02.234Z,12.73
2022-08-26T04:39:31.016Z,12.13
2022-08-26T04:42:01.739Z,11.87
2022-08-26T04:44:32.171Z,14.20
2022-08-26T04:47:01.097Z,17.00
2022-08-26T04:49:35.243Z,9.93
2022-08-26T04:52:05.724Z,12.53
2022-08-26T04:54:34.397Z,8.80
2022-08-26T04:57:03.130Z,8.40
2022-08-26T04:59:34.061Z,15.77
2022-08-26T05:02:06.950Z,15.10
2022-08-26T05:04:37.065Z,11.17
2022-08-26T05:07:07.892Z,7.87
2022-08-26T05:09:38.129Z,13.60
2022-08-26T05:12:06.716Z,13.47
2022-08-26T05:14:35.245Z,9.07
2022-08-26T05:17:03.775Z,15.53
2022-08-26T05:19:33.091Z,8.63
2022-08-26T05:22:02.753Z,11.47
2022-08-26T05:24:31.225Z,10.57
2022-08-26T05:26:59.507Z,14.40
2022-08-26T05:29:28.253Z,14.63
2022-08-26T05:31:56.970Z,19.70
2022-08-26T05:34:30.235Z,9.17
2022-08-26T05:36:59.412Z,17.50
2022-08-26T05:39:29.111Z,12.10
2022-08-26T05:41:57.592Z,10.00
2022-08-26T05:44:26.321Z,13.87
2022-08-26T05:46:54.553Z,9.00
2022-08-26T05:49:26.367Z,7.97
2022-08-26T05:51:55.452Z,7.20
2022-08-26T05:54:23.646Z,11.63
2022-08-26T05:56:53.582Z,11.80
2022-08-26T05:59:24.636Z,13.00
2022-08-26T06:01:54.722Z,16.23
2022-08-26T06:04:27.264Z,17.97
2022-08-26T06:06:57.653Z,10.00
2022-08-26T06:09:27.477Z,12.70
2022-08-26T06:11:58.848Z,10.10
2022-08-26T06:14:27.191Z,15.90
2022-08-26T06:16:56.088Z,9.37
2022-08-26T06:19:24.358Z,11.20
2022-08-26T06:21:54.932Z,12.47
2022-08-26T06:24:41.154Z,7.20
2022-08-26T06:27:13.852Z,11.57
2022-08-26T06:29:43.542Z,6.80
2022-08-26T06:32:11.804Z,6.77
2022-08-26T06:34:40.078Z,3.63
2022-08-26T06:37:09.287Z,4.87
2022-08-26T06:39:41.072Z,4.03
2022-08-26T06:42:12.002Z,3.63
2022-08-26T06:44:41.726Z,4.27
2022-08-26T06:47:13.533Z,5.80
2022-08-26T06:49:41.777Z,10.70
2022-08-26T06:52:12.421Z,4.63
2022-08-26T06:54:44.273Z,5.30
2022-08-26T06:57:14.342Z,5.00
2022-08-26T06:59:45.463Z,4.80
2022-08-26T07:02:13.944Z,7.20
2022-08-26T07:04:42.322Z,2.80
2022-08-26T07:07:14.281Z,3.03
2022-08-26T07:09:42.756Z,2.63
2022-08-26T07:12:11.016Z,4.13
2022-08-26T07:14:40.953Z,5.57
2022-08-26T07:17:15.946Z,3.33
2022-08-26T07:19:45.071Z,5.13
2022-08-26T07:22:13.944Z,2.20
2022-08-26T07:24:42.777Z,6.17
2022-08-26T07:27:14.740Z,3.27
2022-08-26T07:29:44.886Z,8.23
2022-08-26T07:32:14.951Z,2.17
2022-08-26T07:34:44.587Z,3.57
2022-08-26T07:37:12.777Z,4.40
2022-08-26T07:39:43.284Z,2.03
2022-08-26T07:42:13.473Z,2.20
2022-08-26T07:44:44.928Z,3.37
2022-08-26T07:47:24.870Z,1.63
2022-08-26T07:49:56.439Z,2.00
2022-08-26T07:52:27.010Z,5.27
2022-08-26T07:54:56.076Z,1.90
2022-08-26T07:57:24.508Z,2.10
2022-08-26T07:59:55.185Z,5.27
2022-08-26T08:02:25.034Z,2.17
2022-08-26T08:04:54.658Z,6.10
2022-08-26T08:07:38.361Z,1.52
2022-08-26T08:10:09.936Z,3.10
2022-08-26T08:12:39.965Z,4.20
2022-08-26T08:15:11.715Z,1.63
2022-08-26T08:17:39.876Z,1.42
2022-08-26T08:20:09.598Z,1.02
2022-08-26T08:22:39.726Z,3.92
2022-08-26T08:25:10.492Z,1.85
2022-08-26T08:27:42.166Z,3.30
2022-08-26T08:30:13.810Z,6.77
2022-08-26T08:32:43.807Z,3.53
2022-08-26T08:35:13.447Z,2.92
2022-08-26T08:37:43.676Z,1.60
2022-08-26T08:40:18.589Z,3.53
2022-08-26T08:45:33.342Z,1.90
2022-08-26T08:48:07.926Z,3.75
2022-08-26T08:50:43.699Z,1.25
2022-08-26T08:53:16.561Z,3.03
2022-08-26T08:56:05.756Z,1.48
2022-08-26T08:58:47.215Z,3.72
2022-08-26T09:01:26.840Z,3.38
2022-08-26T09:04:06.321Z,1.98
2022-08-26T09:06:34.729Z,3.95
2022-08-26T09:09:04.826Z,1.73
2022-08-26T09:11:34.397Z,5.10
2022-08-26T09:14:02.974Z,2.03
2022-08-26T09:16:42.605Z,1.52
2022-08-26T09:19:19.229Z,1.80
2022-08-26T09:21:55.608Z,1.17
2022-08-26T09:24:28.392Z,0.98
2022-08-26T09:26:59.062Z,1.70
2022-08-26T09:29:30.617Z,1.05
2022-08-26T09:32:19.358Z,1.60
2022-08-26T09:34:59.711Z,4.80
2022-08-26T09:37:41.028Z,1.67
2022-08-26T09:40:24.917Z,1.20
2022-08-26T09:43:11.820Z,1.38
2022-08-26T09:45:50.070Z,3.15
2022-08-26T09:48:31.312Z,1.30
2022-08-26T09:51:01.844Z,4.45
2022-08-26T09:53:32.286Z,2.70
2022-08-26T09:56:17.349Z,1.40
2022-08-26T09:58:47.718Z,2.03
2022-08-26T10:01:26.535Z,3.13
2022-08-26T10:04:06.577Z,2.25
2022-08-26T10:06:40.706Z,4.88
2022-08-26T10:09:13.767Z,3.17
2022-08-26T10:11:47.291Z,3.47
2022-08-26T10:14:20.652Z,0.98
2022-08-26T10:16:53.557Z,4.63
2022-08-26T10:19:41.540Z,2.50
2022-08-26T10:22:23.675Z,4.38
2022-08-26T10:24:57.137Z,1.27
2022-08-26T10:27:33.109Z,3.47
2022-08-26T10:30:10.377Z,0.95
2022-08-26T10:32:41.698Z,1.15
2022-08-26T10:35:14.942Z,1.10
2022-08-26T10:37:46.999Z,1.35
2022-08-26T10:40:21.192Z,1.27
2022-08-26T10:42:54.413Z,1.20
2022-08-26T10:45:25.920Z,1.25
2022-08-26T10:47:58.721Z,1.63
2022-08-26T10:50:33.376Z,1.10
2022-08-26T10:53:09.178Z,2.47
2022-08-26T10:55:44.422Z,2.75
2022-08-26T10:58:29.424Z,5.88
2022-08-26T11:01:22.722Z,2.88
2022-08-26T11:03:58.207Z,1.15
2022-08-26T11:06:30.285Z,3.05
2022-08-26T11:09:01.145Z,3.25
2022-08-26T11:11:53.486Z,2.53
2022-08-26T11:14:53.028Z,1.40
2022-08-26T11:17:55.881Z,2.15
2022-08-26T11:20:35.419Z,1.65
2022-08-26T11:23:50.598Z,7.53
2022-08-26T11:26:35.383Z,4.68
2022-08-26T11:29:13.271Z,2.55
2022-08-26T11:31:57.062Z,1.10
2022-08-26T11:34:56.304Z,3.65
2022-08-26T11:37:36.593Z,1.58
2022-08-26T11:40:13.801Z,0.80
2022-08-26T11:42:45.384Z,2.00
2022-08-26T11:45:19.435Z,1.20
2022-08-26T11:47:49.377Z,2.47
2022-08-26T11:50:21.205Z,1.98
2022-08-26T11:52:57.345Z,2.97
2022-08-26T11:55:26.930Z,5.72
2022-08-26T11:57:57.688Z,2.22
2022-08-26T12:00:33.316Z,3.78
2022-08-26T12:03:08.132Z,1.23
2022-08-26T12:05:40.086Z,1.30
2022-08-26T12:08:11.090Z,3.10
2022-08-26T12:10:41.877Z,2.15
2022-08-26T12:13:18.917Z,1.17
2022-08-26T12:15:55.862Z,1.02
2022-08-26T12:18:29.355Z,1.20
2022-08-26T12:21:00.729Z,0.70
2022-08-26T12:23:45.417Z,0.80
2022-08-26T12:26:22.712Z,6.30
2022-08-26T12:28:55.365Z,3.72
2022-08-26T12:31:32.482Z,1.30
2022-08-26T12:34:03.642Z,1.42
2022-08-26T12:36:34.560Z,0.80
2022-08-26T12:39:11.409Z,1.10
2022-08-26T12:41:59.716Z,3.92
2022-08-26T12:44:36.645Z,2.03
2022-08-26T12:47:10.040Z,2.33
2022-08-26T12:49:40.602Z,3.08
2022-08-26T12:52:29.950Z,1.15
2022-08-26T12:55:01.348Z,2.15
2022-08-26T12:57:35.309Z,1.25
2022-08-26T13:00:33.141Z,3.58
2022-08-26T13:03:02.804Z,3.60
2022-08-26T13:05:35.155Z,4.95
2022-08-26T13:08:15.818Z,0.80
2022-08-26T13:10:46.346Z,1.73
2022-08-26T13:13:16.043Z,1.05
2022-08-26T13:15:44.867Z,2.28
2022-08-26T13:18:13.064Z,2.97
2022-08-26T13:20:44.904Z,3.95
2022-08-26T13:23:13.562Z,0.90
2022-08-26T13:25:42.040Z,3.70
2022-08-26T13:28:10.257Z,2.58
2022-08-26T13:30:40.787Z,1.52
2022-08-26T13:33:10.006Z,2.55
2022-08-26T13:35:40.786Z,1.13
2022-08-26T13:38:22.364Z,4.57
2022-08-26T13:41:02.750Z,3.03
2022-08-26T13:43:33.110Z,2.80
2022-08-26T13:46:03.113Z,1.63
2022-08-26T13:48:31.889Z,1.83
2022-08-26T13:51:00.258Z,1.35
2022-08-26T13:53:30.487Z,1.58
2022-08-26T13:55:59.588Z,3.13
2022-08-26T13:58:28.434Z,3.15
2022-08-26T14:00:58.362Z,2.35
2022-08-26T14:03:28.177Z,4.38
2022-08-26T14:05:57.100Z,1.40
2022-08-26T14:08:25.779Z,2.78
2022-08-26T14:10:54.062Z,1.30
2022-08-26T14:13:22.755Z,1.88
2022-08-26T14:15:51.490Z,1.25
2022-08-26T14:18:24.203Z,1.20
2022-08-26T14:20:56.159Z,1.50
2022-08-26T14:23:24.849Z,2.35
2022-08-26T14:25:53.669Z,1.15
2022-08-26T14:28:21.860Z,2.85
2022-08-26T14:30:54.594Z,1.52
2022-08-26T14:33:26.761Z,3.10
2022-08-26T14:36:17.726Z,1.40
2022-08-26T14:38:46.042Z,1.45
2022-08-26T14:41:16.465Z,1.95
2022-08-26T14:43:50.524Z,1.77
2022-08-26T14:46:19.404Z,4.00
2022-08-26T14:48:47.618Z,6.07
2022-08-26T14:51:17.338Z,1.40
2022-08-26T14:54:03.160Z,1.98
2022-08-26T14:56:32.616Z,1.38
2022-08-26T14:59:01.003Z,2.75
2022-08-26T15:01:31.075Z,4.72
2022-08-26T15:03:59.980Z,2.88
2022-08-26T15:06:31.806Z,1.33
2022-08-26T15:09:00.112Z,2.20
2022-08-26T15:11:28.735Z,1.60
2022-08-26T15:13:57.353Z,4.18
2022-08-26T15:16:25.733Z,1.50
2022-08-26T15:18:54.757Z,2.22
2022-08-26T15:21:23.757Z,3.90
2022-08-26T15:23:54.906Z,1.50
2022-08-26T15:26:24.448Z,4.88
2022-08-26T15:28:52.930Z,3.92
2022-08-26T15:31:25.674Z,1.80
2022-08-26T15:33:54.209Z,2.08
2022-08-26T15:36:22.486Z,2.15
2022-08-26T15:38:52.409Z,3.38
2022-08-26T15:41:20.727Z,6.55
2022-08-26T15:43:48.923Z,2.03
2022-08-26T15:46:17.304Z,1.50
2022-08-26T15:48:45.735Z,2.55
2022-08-26T15:51:21.995Z,5.57
2022-08-26T15:53:52.665Z,2.33
2022-08-26T15:56:20.865Z,2.00
2022-08-26T15:58:51.061Z,3.13
2022-08-26T16:01:27.425Z,2.22
2022-08-26T16:03:57.462Z,2.53
2022-08-26T16:06:29.383Z,3.20
2022-08-26T16:09:00.066Z,5.68
2022-08-26T16:11:29.306Z,3.00
2022-08-26T16:13:57.990Z,3.42
2022-08-26T16:16:27.045Z,2.50
2022-08-26T16:18:55.264Z,1.50
2022-08-26T16:21:25.548Z,2.53
2022-08-26T16:23:54.170Z,1.35
2022-08-26T16:26:29.474Z,2.35
2022-08-26T16:28:58.001Z,2.92
2022-08-26T16:31:26.430Z,3.35
2022-08-26T16:33:54.661Z,3.27
2022-08-26T16:36:23.384Z,2.60
2022-08-26T16:38:56.178Z,3.58
2022-08-26T16:41:28.385Z,1.77
2022-08-26T16:43:57.238Z,5.33
2022-08-26T16:46:26.694Z,3.20
2022-08-26T16:48:55.659Z,1.77
2022-08-26T16:51:27.042Z,2.03
2022-08-26T16:53:57.129Z,1.95
2022-08-26T16:56:33.675Z,4.47
2022-08-26T16:59:03.269Z,1.73
2022-08-26T17:01:31.559Z,4.43
2022-08-26T17:03:59.870Z,4.83
2022-08-26T17:06:28.342Z,2.40
2022-08-26T17:08:56.622Z,4.20
2022-08-26T17:11:26.203Z,4.40
2022-08-26T17:13:54.865Z,3.80
2022-08-26T17:16:26.608Z,3.63
2022-08-26T17:18:56.973Z,3.27
2022-08-26T17:21:25.385Z,2.03
2022-08-26T17:23:54.056Z,2.27
2022-08-26T17:26:22.693Z,5.43
2022-08-26T17:28:52.649Z,2.53
2022-08-26T17:31:21.629Z,3.10
2022-08-26T17:33:53.957Z,2.83
2022-08-26T17:36:23.081Z,3.00
2022-08-26T17:38:56.960Z,4.00
2022-08-26T17:41:25.924Z,4.57
2022-08-26T17:43:55.923Z,4.13
2022-08-26T17:46:25.341Z,2.27
2022-08-26T17:48:53.558Z,2.90
2022-08-26T17:51:22.762Z,6.17
2022-08-26T17:53:52.100Z,4.80
2022-08-26T17:56:23.920Z,4.73
2022-08-26T17:58:53.351Z,6.20
2022-08-26T18:01:26.107Z,6.93
2022-08-26T18:04:00.166Z,3.43
2022-08-26T18:06:30.685Z,6.37
2022-08-26T18:09:00.614Z,10.70
2022-08-26T18:11:29.626Z,3.70
2022-08-26T18:13:58.026Z,3.50
2022-08-26T18:16:29.659Z,10.67
2022-08-26T18:18:58.529Z,5.43
2022-08-26T18:21:28.561Z,6.67
2022-08-26T18:23:57.181Z,8.53
2022-08-26T18:26:28.713Z,3.40
2022-08-26T18:28:57.284Z,6.57
2022-08-26T18:31:27.668Z,7.57
2022-08-26T18:33:56.376Z,5.60
2022-08-26T18:36:27.748Z,5.70
2022-08-26T18:38:56.819Z,9.67
2022-08-26T18:41:27.776Z,5.70
2022-08-26T18:43:56.870Z,5.27
2022-08-26T18:46:28.376Z,4.13
2022-08-26T18:48:58.553Z,8.47
2022-08-26T18:51:29.769Z,6.70
2022-08-26T18:53:58.918Z,7.50
2022-08-26T18:56:27.543Z,6.47
2022-08-26T18:58:56.129Z,6.27
2022-08-26T19:01:27.531Z,7.33
2022-08-26T19:03:58.696Z,4.97
2022-08-26T19:06:29.582Z,4.43
2022-08-26T19:08:58.007Z,14.43
2022-08-26T19:11:32.651Z,6.73
2022-08-26T19:14:07.267Z,4.83
2022-08-26T19:16:38.962Z,5.10
2022-08-26T19:19:09.118Z,11.07
2022-08-26T19:21:38.368Z,6.87
2022-08-26T19:24:12.403Z,10.67
2022-08-26T19:26:40.756Z,6.77
2022-08-26T19:29:09.401Z,5.00
2022-08-26T19:31:37.751Z,5.97
2022-08-26T19:34:06.724Z,9.97
2022-08-26T19:36:37.847Z,8.70
2022-08-26T19:39:07.795Z,6.27
2022-08-26T19:41:39.101Z,13.17
2022-08-26T19:44:09.622Z,5.33
2022-08-26T19:49:12.778Z,8.40
2022-08-26T19:51:42.370Z,12.27
2022-08-26T19:54:10.639Z,6.13
2022-08-26T19:56:38.879Z,9.03
2022-08-26T19:59:07.113Z,14.83
2022-08-26T20:01:35.372Z,9.73
2022-08-26T20:04:04.547Z,7.03
2022-08-26T20:06:32.749Z,7.63
2022-08-26T20:09:02.368Z,10.67
2022-08-26T20:11:31.266Z,9.37
2022-08-26T20:14:00.507Z,7.00
2022-08-26T20:16:28.726Z,10.67
2022-08-26T20:19:14.621Z,10.50
2022-08-26T20:21:43.024Z,11.57
2022-08-26T20:24:15.906Z,13.30
2022-08-26T20:26:45.637Z,9.50
2022-08-26T20:29:18.012Z,9.67
2022-08-26T20:31:46.370Z,12.30
2022-08-26T20:34:18.615Z,7.37
2022-08-26T20:36:48.429Z,10.40
2022-08-26T20:39:19.877Z,15.80
2022-08-26T20:41:48.616Z,12.77
2022-08-26T20:44:17.853Z,13.33
2022-08-26T20:46:46.780Z,7.50
2022-08-26T20:49:15.449Z,20.80
2022-08-26T20:51:43.989Z,11.53
2022-08-26T20:54:13.218Z,10.40
2022-08-26T20:56:43.065Z,11.60
2022-08-26T20:59:11.509Z,10.33
2022-08-26T21:01:42.313Z,14.37
2022-08-26T21:04:14.446Z,15.27
2022-08-26T21:06:48.981Z,10.77
2022-08-26T21:09:21.787Z,14.57
2022-08-26T21:11:52.233Z,14.37
2022-08-26T21:14:23.213Z,15.47
2022-08-26T21:16:54.222Z,18.67
2022-08-26T21:19:22.605Z,16.70
2022-08-26T21:21:50.822Z,16.80
2022-08-26T21:24:19.136Z,16.83
2022-08-26T21:26:47.945Z,18.80
2022-08-26T21:29:17.497Z,21.13
2022-08-26T21:31:46.898Z,15.27
2022-08-26T21:34:16.064Z,27.73
2022-08-26T21:36:44.261Z,13.73
2022-08-26T21:39:12.589Z,21.20
2022-08-26T21:41:41.525Z,25.20
2022-08-26T21:44:10.458Z,26.57
2022-08-26T21:46:40.479Z,22.27
2022-08-26T21:49:11.330Z,21.00
2022-08-26T21:51:43.193Z,26.27
2022-08-26T21:54:12.800Z,35.10
2022-08-26T21:56:46.840Z,23.07
2022-08-26T21:59:16.746Z,23.67
2022-08-26T22:01:46.618Z,24.87
2022-08-26T22:04:15.590Z,24.73
2022-08-26T22:06:46.597Z,22.10
2022-08-26T22:09:17.275Z,15.57
2022-08-26T22:11:46.521Z,21.93
2022-08-26T22:14:16.079Z,28.33
2022-08-26T22:16:50.245Z,28.83
2022-08-26T22:19:20.152Z,21.03
2022-08-26T22:21:49.535Z,25.30
2022-08-26T22:24:18.555Z,18.67
2022-08-26T22:26:47.330Z,19.40
2022-08-26T22:29:16.085Z,26.33
2022-08-26T22:31:46.071Z,29.53
2022-08-26T22:34:17.456Z,22.63
2022-08-26T22:36:48.348Z,19.97
2022-08-26T22:39:22.664Z,33.53
2022-08-26T22:41:51.578Z,20.67
2022-08-26T22:44:21.467Z,24.93
2022-08-26T22:46:54.235Z,22.33
2022-08-26T22:49:23.275Z,27.77
2022-08-26T22:51:52.077Z,21.23
2022-08-26T22:54:20.845Z,22.43
2022-08-26T22:56:49.222Z,23.50
2022-08-26T22:59:17.994Z,32.07
2022-08-26T23:01:47.594Z,21.93
2022-08-26T23:04:17.410Z,23.37
2022-08-26T23:06:47.672Z,19.17
2022-08-26T23:09:18.409Z,24.07
2022-08-26T23:11:47.767Z,24.90
2022-08-26T23:14:17.273Z,18.27
2022-08-26T23:16:45.642Z,20.90
2022-08-26T23:19:15.006Z,30.43
2022-08-26T23:21:45.521Z,24.97
2022-08-26T23:24:14.787Z,28.50
2022-08-26T23:26:43.834Z,32.47
2022-08-26T23:29:15.740Z,30.70
2022-08-26T23:31:44.572Z,27.33
2022-08-26T23:34:31.813Z,36.23
2022-08-26T23:37:01.546Z,25.50
2022-08-26T23:39:30.293Z,25.10
2022-08-26T23:41:58.681Z,21.77
2022-08-26T23:44:27.024Z,18.30
2022-08-26T23:46:55.890Z,22.53
2022-08-26T23:49:24.857Z,25.10
2022-08-26T23:52:11.285Z,27.90
2022-08-26T23:54:42.005Z,29.17
2022-08-26T23:57:11.030Z,23.60
2022-08-26T23:59:39.857Z,23.17
